Aérodrome :
LOGIN :

S'inscrire | Disclaimer

   EN    FR    IT 

 










Légende :    VFR   VFR Marginal   IFR   IFR Intensif   IFR Très Intensif
Visi : 
Plafond : 
>= 8 km
>= 3000ft
5 à 8 km
1000 à 3000 ft
1500m à 5 km
500 à 1000 ft
800 à 1500m
200 à 500 ft
< 800m
< 200 ft
Symboles :   Orages  Brouillard  Fortes neiges  Fortes précipitations  Vent > 20 kt
SIGMETs :   Divers  Orages  Givrage  Turbulence  Onde Orograph.  Cendres Volcan.







- Altitude de l'aérodrome : 106 ft
- Code IATA : XDA
- Voir les cartes d'approche


LFBY - Dax Seyresse

DERNIER METAR :
  • 191000Z 27004KT 230V320 9999 SCT008 BKN011 11/09 Q1022

METARs EXPIRÉS :
  • 190930Z 26003KT 230V300 9999 BKN009 10/09 Q1022
  • 190900Z 25003KT 9000 BKN009 10/09 Q1022
  • 190831Z 25003KT 210V270 9000 BKN008 10/09 Q1022 RMK M3
  • 190830Z 25003KT 210V270 9000 BKN008 10/09 Q1022
  • FBY 190819Z VRB02KT 8000 SCT006 BKN100 10/09 Q1022
  • 190819Z VRB02KT 8000 SCT006 BKN100 10/09 Q1022
  • 190800Z VRB02KT 8000 BKN006 10/09 Q1022

TAF TAF LFBY
Valide du 19 à 09h jusqu'au 19 à 18h UTC


190800Z 1909/1918 20004KT 8000 BKN008
BECMG 1910/1912 SCT010 BKN018
Pas de NOTAMs connus pour ce terrain.
1 SIGMET publié pour la FIR Bordeaux (LFBB) :
 
Turbulence forte
LFBB SIGMET 2 VALID 190800/191200 LFPW
LFBB BORDEAUX FIR/UIR SEV TURB FCST NW OF LINE N4330 W00145 - N4715 E00130 FL200/300 STNR NC=



MET'MAP, la Météo Aéronautique d'un coup d'oeil ! - Copyright ORBIFLY Décembre 2007 - Disclaimer

ORBIFLY MET'MAP TEAM :

Programmation & Développement : Alexandra Zaïnal
Conception & Développement : Baudouin d'Aumeries
Co-Programmation & Développement : Marc-Olivier Méhu
Soutien technique & logistique : Manuel Goepfert

Contact : metmap@orbifly.com




SOURCES & CREDITS :

   NOAA